sensor_id;sensor_type;location;lat;lon;timestamp;temperature;humidity
28763;DHT22;15918;51.270;6.522;2023-03-01T00:00:49;6.70;56.40
28763;DHT22;15918;51.270;6.522;2023-03-01T00:03:15;6.70;56.40
28763;DHT22;15918;51.270;6.522;2023-03-01T00:05:44;6.70;56.40
28763;DHT22;15918;51.270;6.522;2023-03-01T00:08:10;6.70;56.50
28763;DHT22;15918;51.270;6.522;2023-03-01T00:10:36;6.70;56.40
28763;DHT22;15918;51.270;6.522;2023-03-01T00:13:01;6.70;56.50
28763;DHT22;15918;51.270;6.522;2023-03-01T00:15:27;6.70;56.50
28763;DHT22;15918;51.270;6.522;2023-03-01T00:17:53;6.70;56.50
28763;DHT22;15918;51.270;6.522;2023-03-01T00:20:18;6.70;56.50
28763;DHT22;15918;51.270;6.522;2023-03-01T00:22:44;6.70;56.50
28763;DHT22;15918;51.270;6.522;2023-03-01T00:25:09;6.70;56.50
28763;DHT22;15918;51.270;6.522;2023-03-01T00:27:35;6.60;56.50
28763;DHT22;15918;51.270;6.522;2023-03-01T00:30:00;6.70;56.50
28763;DHT22;15918;51.270;6.522;2023-03-01T00:32:25;6.60;56.50
28763;DHT22;15918;51.270;6.522;2023-03-01T00:34:51;6.60;56.50
28763;DHT22;15918;51.270;6.522;2023-03-01T00:37:20;6.60;56.50
28763;DHT22;15918;51.270;6.522;2023-03-01T00:39:46;6.60;56.50
28763;DHT22;15918;51.270;6.522;2023-03-01T00:42:11;6.60;56.50
28763;DHT22;15918;51.270;6.522;2023-03-01T00:44:37;6.60;56.50
28763;DHT22;15918;51.270;6.522;2023-03-01T00:47:02;6.60;56.60
28763;DHT22;15918;51.270;6.522;2023-03-01T00:49:28;6.60;56.60
28763;DHT22;15918;51.270;6.522;2023-03-01T00:51:53;6.60;56.60
28763;DHT22;15918;51.270;6.522;2023-03-01T00:54:19;6.60;56.60
28763;DHT22;15918;51.270;6.522;2023-03-01T00:56:44;6.60;56.60
28763;DHT22;15918;51.270;6.522;2023-03-01T00:59:09;6.60;56.60
28763;DHT22;15918;51.270;6.522;2023-03-01T01:01:35;6.50;56.60
28763;DHT22;15918;51.270;6.522;2023-03-01T01:04:06;6.50;56.60
28763;DHT22;15918;51.270;6.522;2023-03-01T01:06:36;6.60;56.60
28763;DHT22;15918;51.270;6.522;2023-03-01T01:09:02;6.50;56.70
28763;DHT22;15918;51.270;6.522;2023-03-01T01:11:29;6.50;56.70
28763;DHT22;15918;51.270;6.522;2023-03-01T01:13:54;6.50;56.70
28763;DHT22;15918;51.270;6.522;2023-03-01T01:16:21;6.50;56.70
28763;DHT22;15918;51.270;6.522;2023-03-01T01:18:47;6.50;56.70
28763;DHT22;15918;51.270;6.522;2023-03-01T01:21:14;6.50;56.70
28763;DHT22;15918;51.270;6.522;2023-03-01T01:23:40;6.50;56.70
28763;DHT22;15918;51.270;6.522;2023-03-01T01:26:06;6.50;56.70
28763;DHT22;15918;51.270;6.522;2023-03-01T01:28:32;6.50;56.70
28763;DHT22;15918;51.270;6.522;2023-03-01T01:30:58;6.40;56.70
28763;DHT22;15918;51.270;6.522;2023-03-01T01:33:23;6.50;56.70
28763;DHT22;15918;51.270;6.522;2023-03-01T01:35:49;6.40;56.70
28763;DHT22;15918;51.270;6.522;2023-03-01T01:38:14;6.40;56.70
28763;DHT22;15918;51.270;6.522;2023-03-01T01:40:44;6.40;56.70
28763;DHT22;15918;51.270;6.522;2023-03-01T01:43:20;6.40;56.70
28763;DHT22;15918;51.270;6.522;2023-03-01T01:45:46;6.40;56.70
28763;DHT22;15918;51.270;6.522;2023-03-01T01:48:13;6.40;56.70
28763;DHT22;15918;51.270;6.522;2023-03-01T01:50:41;6.40;56.70
28763;DHT22;15918;51.270;6.522;2023-03-01T01:53:14;6.40;56.70
28763;DHT22;15918;51.270;6.522;2023-03-01T01:55:43;6.40;56.80
28763;DHT22;15918;51.270;6.522;2023-03-01T01:58:10;6.40;56.80
28763;DHT22;15918;51.270;6.522;2023-03-01T02:00:36;6.40;56.80
28763;DHT22;15918;51.270;6.522;2023-03-01T02:03:03;6.40;56.80
28763;DHT22;15918;51.270;6.522;2023-03-01T02:07:58;6.30;56.80
28763;DHT22;15918;51.270;6.522;2023-03-01T02:10:24;6.40;56.80
28763;DHT22;15918;51.270;6.522;2023-03-01T02:12:51;6.30;56.80
28763;DHT22;15918;51.270;6.522;2023-03-01T02:15:17;6.30;56.80
28763;DHT22;15918;51.270;6.522;2023-03-01T02:17:42;6.30;56.80
28763;DHT22;15918;51.270;6.522;2023-03-01T02:22:43;6.30;56.90
28763;DHT22;15918;51.270;6.522;2023-03-01T02:27:49;6.30;56.90
28763;DHT22;15918;51.270;6.522;2023-03-01T02:30:17;6.30;56.90
28763;DHT22;15918;51.270;6.522;2023-03-01T02:32:44;6.30;56.90
28763;DHT22;15918;51.270;6.522;2023-03-01T02:35:13;6.20;56.80
28763;DHT22;15918;51.270;6.522;2023-03-01T02:37:40;6.20;56.90
28763;DHT22;15918;51.270;6.522;2023-03-01T02:40:08;6.20;56.90
28763;DHT22;15918;51.270;6.522;2023-03-01T02:42:38;6.20;56.90
28763;DHT22;15918;51.270;6.522;2023-03-01T02:45:06;6.20;56.90
28763;DHT22;15918;51.270;6.522;2023-03-01T02:47:31;6.20;56.90
28763;DHT22;15918;51.270;6.522;2023-03-01T02:49:57;6.20;56.90
28763;DHT22;15918;51.270;6.522;2023-03-01T02:52:41;6.20;56.90
28763;DHT22;15918;51.270;6.522;2023-03-01T02:55:11;6.20;56.90
28763;DHT22;15918;51.270;6.522;2023-03-01T02:57:39;6.10;56.90
28763;DHT22;15918;51.270;6.522;2023-03-01T03:00:15;6.10;56.90
28763;DHT22;15918;51.270;6.522;2023-03-01T03:02:51;6.20;57.00
28763;DHT22;15918;51.270;6.522;2023-03-01T03:07:44;6.10;57.00
28763;DHT22;15918;51.270;6.522;2023-03-01T03:10:11;6.10;57.00
28763;DHT22;15918;51.270;6.522;2023-03-01T03:12:37;6.10;57.00
28763;DHT22;15918;51.270;6.522;2023-03-01T03:15:04;6.10;57.00
28763;DHT22;15918;51.270;6.522;2023-03-01T03:17:37;6.10;57.00
28763;DHT22;15918;51.270;6.522;2023-03-01T03:20:04;6.10;57.00
28763;DHT22;15918;51.270;6.522;2023-03-01T03:22:30;6.10;57.00
28763;DHT22;15918;51.270;6.522;2023-03-01T03:24:55;6.10;57.00
28763;DHT22;15918;51.270;6.522;2023-03-01T03:27:21;6.10;57.00
28763;DHT22;15918;51.270;6.522;2023-03-01T03:29:46;6.00;57.00
28763;DHT22;15918;51.270;6.522;2023-03-01T03:32:11;6.00;57.00
28763;DHT22;15918;51.270;6.522;2023-03-01T03:34:37;6.00;57.10
28763;DHT22;15918;51.270;6.522;2023-03-01T03:37:02;6.00;57.00
28763;DHT22;15918;51.270;6.522;2023-03-01T03:39:28;6.00;57.00
28763;DHT22;15918;51.270;6.522;2023-03-01T03:41:54;6.00;57.10
28763;DHT22;15918;51.270;6.522;2023-03-01T03:44:21;6.00;57.10
28763;DHT22;15918;51.270;6.522;2023-03-01T03:46:46;6.00;57.10
28763;DHT22;15918;51.270;6.522;2023-03-01T03:49:12;6.00;57.10
28763;DHT22;15918;51.270;6.522;2023-03-01T03:51:37;6.00;57.60
28763;DHT22;15918;51.270;6.522;2023-03-01T03:54:03;6.00;57.10
28763;DHT22;15918;51.270;6.522;2023-03-01T03:56:28;5.90;57.00
28763;DHT22;15918;51.270;6.522;2023-03-01T03:58:53;5.90;57.00
28763;DHT22;15918;51.270;6.522;2023-03-01T04:01:19;5.90;57.00
28763;DHT22;15918;51.270;6.522;2023-03-01T04:03:44;6.00;57.10
28763;DHT22;15918;51.270;6.522;2023-03-01T04:06:13;5.90;57.10
28763;DHT22;15918;51.270;6.522;2023-03-01T04:08:39;5.90;57.70
28763;DHT22;15918;51.270;6.522;2023-03-01T04:11:05;5.90;57.10
28763;DHT22;15918;51.270;6.522;2023-03-01T04:13:49;6.00;57.10
28763;DHT22;15918;51.270;6.522;2023-03-01T04:16:14;5.90;57.10
28763;DHT22;15918;51.270;6.522;2023-03-01T04:18:40;5.90;57.10
28763;DHT22;15918;51.270;6.522;2023-03-01T04:21:05;5.90;57.10
28763;DHT22;15918;51.270;6.522;2023-03-01T04:23:31;5.90;57.20
28763;DHT22;15918;51.270;6.522;2023-03-01T04:25:57;5.90;57.10
28763;DHT22;15918;51.270;6.522;2023-03-01T04:28:24;5.80;57.10
28763;DHT22;15918;51.270;6.522;2023-03-01T04:30:50;5.80;57.10
28763;DHT22;15918;51.270;6.522;2023-03-01T04:33:16;5.80;57.10
28763;DHT22;15918;51.270;6.522;2023-03-01T04:35:41;5.80;57.10
28763;DHT22;15918;51.270;6.522;2023-03-01T04:38:07;5.80;57.20
28763;DHT22;15918;51.270;6.522;2023-03-01T04:40:33;5.80;57.10
28763;DHT22;15918;51.270;6.522;2023-03-01T04:42:59;5.80;57.10
28763;DHT22;15918;51.270;6.522;2023-03-01T04:45:24;5.80;57.20
28763;DHT22;15918;51.270;6.522;2023-03-01T04:47:50;5.80;57.20
28763;DHT22;15918;51.270;6.522;2023-03-01T04:50:17;5.70;57.10
28763;DHT22;15918;51.270;6.522;2023-03-01T04:52:46;5.80;57.20
28763;DHT22;15918;51.270;6.522;2023-03-01T04:55:12;5.70;57.10
28763;DHT22;15918;51.270;6.522;2023-03-01T04:57:37;5.70;57.10
28763;DHT22;15918;51.270;6.522;2023-03-01T05:00:03;5.70;57.20
28763;DHT22;15918;51.270;6.522;2023-03-01T05:02:45;5.70;57.20
28763;DHT22;15918;51.270;6.522;2023-03-01T05:05:11;5.70;57.20
28763;DHT22;15918;51.270;6.522;2023-03-01T05:07:36;5.70;57.20
28763;DHT22;15918;51.270;6.522;2023-03-01T05:10:02;5.70;57.20
28763;DHT22;15918;51.270;6.522;2023-03-01T05:12:27;5.70;57.10
28763;DHT22;15918;51.270;6.522;2023-03-01T05:14:53;5.70;57.20
28763;DHT22;15918;51.270;6.522;2023-03-01T05:17:18;5.70;57.20
28763;DHT22;15918;51.270;6.522;2023-03-01T05:19:44;5.60;57.20
28763;DHT22;15918;51.270;6.522;2023-03-01T05:22:09;5.60;57.20
28763;DHT22;15918;51.270;6.522;2023-03-01T05:24:35;5.60;57.20
28763;DHT22;15918;51.270;6.522;2023-03-01T05:27:01;5.60;57.20
28763;DHT22;15918;51.270;6.522;2023-03-01T05:29:27;5.60;57.20
28763;DHT22;15918;51.270;6.522;2023-03-01T05:31:57;5.60;57.20
28763;DHT22;15918;51.270;6.522;2023-03-01T05:34:31;5.60;57.30
28763;DHT22;15918;51.270;6.522;2023-03-01T05:36:58;5.60;57.40
28763;DHT22;15918;51.270;6.522;2023-03-01T05:39:25;5.60;57.20
28763;DHT22;15918;51.270;6.522;2023-03-01T05:41:55;5.60;57.20
28763;DHT22;15918;51.270;6.522;2023-03-01T05:44:20;5.60;57.30
28763;DHT22;15918;51.270;6.522;2023-03-01T05:46:46;5.60;57.30
28763;DHT22;15918;51.270;6.522;2023-03-01T05:49:12;5.60;57.30
28763;DHT22;15918;51.270;6.522;2023-03-01T05:51:39;5.60;57.30
28763;DHT22;15918;51.270;6.522;2023-03-01T05:54:04;5.50;57.20
28763;DHT22;15918;51.270;6.522;2023-03-01T05:56:34;5.50;57.30
28763;DHT22;15918;51.270;6.522;2023-03-01T05:59:00;5.50;57.30
28763;DHT22;15918;51.270;6.522;2023-03-01T06:01:25;5.50;57.30
28763;DHT22;15918;51.270;6.522;2023-03-01T06:03:51;5.50;57.30
28763;DHT22;15918;51.270;6.522;2023-03-01T06:06:16;5.50;57.30
28763;DHT22;15918;51.270;6.522;2023-03-01T06:08:42;5.50;57.30
28763;DHT22;15918;51.270;6.522;2023-03-01T06:11:07;5.50;57.30
28763;DHT22;15918;51.270;6.522;2023-03-01T06:13:33;5.50;57.30
28763;DHT22;15918;51.270;6.522;2023-03-01T06:15:58;5.50;57.30
28763;DHT22;15918;51.270;6.522;2023-03-01T06:18:24;5.50;57.30
28763;DHT22;15918;51.270;6.522;2023-03-01T06:20:55;5.50;57.30
28763;DHT22;15918;51.270;6.522;2023-03-01T06:23:21;5.50;57.30
28763;DHT22;15918;51.270;6.522;2023-03-01T06:25:47;5.50;57.40
28763;DHT22;15918;51.270;6.522;2023-03-01T06:28:13;5.50;57.30
28763;DHT22;15918;51.270;6.522;2023-03-01T06:30:38;5.50;57.30
28763;DHT22;15918;51.270;6.522;2023-03-01T06:33:04;5.40;57.30
28763;DHT22;15918;51.270;6.522;2023-03-01T06:35:29;5.40;57.30
28763;DHT22;15918;51.270;6.522;2023-03-01T06:37:56;5.40;57.30
28763;DHT22;15918;51.270;6.522;2023-03-01T06:40:22;5.40;57.30
28763;DHT22;15918;51.270;6.522;2023-03-01T06:42:48;5.40;57.30
28763;DHT22;15918;51.270;6.522;2023-03-01T06:45:14;5.40;57.30
28763;DHT22;15918;51.270;6.522;2023-03-01T06:47:40;5.40;57.30
28763;DHT22;15918;51.270;6.522;2023-03-01T06:50:05;5.40;57.30
28763;DHT22;15918;51.270;6.522;2023-03-01T06:52:31;5.40;57.30
28763;DHT22;15918;51.270;6.522;2023-03-01T06:54:56;5.40;57.30
28763;DHT22;15918;51.270;6.522;2023-03-01T06:57:22;5.40;57.30
28763;DHT22;15918;51.270;6.522;2023-03-01T06:59:47;5.40;57.30
28763;DHT22;15918;51.270;6.522;2023-03-01T07:02:13;5.40;57.30
28763;DHT22;15918;51.270;6.522;2023-03-01T07:04:40;5.40;57.40
28763;DHT22;15918;51.270;6.522;2023-03-01T07:07:05;5.40;57.40
28763;DHT22;15918;51.270;6.522;2023-03-01T07:09:31;5.40;57.40
28763;DHT22;15918;51.270;6.522;2023-03-01T07:11:56;5.40;57.40
28763;DHT22;15918;51.270;6.522;2023-03-01T07:14:22;5.40;57.40
28763;DHT22;15918;51.270;6.522;2023-03-01T07:16:49;5.40;57.40
28763;DHT22;15918;51.270;6.522;2023-03-01T07:19:15;5.40;57.40
28763;DHT22;15918;51.270;6.522;2023-03-01T07:21:40;5.40;57.40
28763;DHT22;15918;51.270;6.522;2023-03-01T07:24:06;5.40;57.40
28763;DHT22;15918;51.270;6.522;2023-03-01T07:26:32;5.40;57.40
28763;DHT22;15918;51.270;6.522;2023-03-01T07:29:01;5.40;57.30
28763;DHT22;15918;51.270;6.522;2023-03-01T07:31:26;5.40;57.40
28763;DHT22;15918;51.270;6.522;2023-03-01T07:33:55;5.40;57.40
28763;DHT22;15918;51.270;6.522;2023-03-01T07:36:20;5.40;57.30
28763;DHT22;15918;51.270;6.522;2023-03-01T07:38:46;5.40;57.40
28763;DHT22;15918;51.270;6.522;2023-03-01T07:41:12;5.50;57.40
28763;DHT22;15918;51.270;6.522;2023-03-01T07:43:37;5.50;57.40
28763;DHT22;15918;51.270;6.522;2023-03-01T07:46:03;5.50;57.40
28763;DHT22;15918;51.270;6.522;2023-03-01T07:48:29;5.50;57.40
28763;DHT22;15918;51.270;6.522;2023-03-01T07:50:57;5.50;57.40
28763;DHT22;15918;51.270;6.522;2023-03-01T07:53:23;5.50;57.40
28763;DHT22;15918;51.270;6.522;2023-03-01T07:55:48;5.50;57.40
28763;DHT22;15918;51.270;6.522;2023-03-01T07:58:13;5.60;57.30
28763;DHT22;15918;51.270;6.522;2023-03-01T08:00:39;5.60;57.30
28763;DHT22;15918;51.270;6.522;2023-03-01T08:03:04;5.60;57.30
28763;DHT22;15918;51.270;6.522;2023-03-01T08:05:30;5.60;57.30
28763;DHT22;15918;51.270;6.522;2023-03-01T08:07:55;5.60;57.30
28763;DHT22;15918;51.270;6.522;2023-03-01T08:10:21;5.60;57.30
28763;DHT22;15918;51.270;6.522;2023-03-01T08:12:46;5.70;57.30
28763;DHT22;15918;51.270;6.522;2023-03-01T08:15:12;5.70;57.20
28763;DHT22;15918;51.270;6.522;2023-03-01T08:17:37;5.70;57.20
28763;DHT22;15918;51.270;6.522;2023-03-01T08:20:03;5.70;57.20
28763;DHT22;15918;51.270;6.522;2023-03-01T08:22:31;5.80;57.20
28763;DHT22;15918;51.270;6.522;2023-03-01T08:24:56;5.80;57.20
28763;DHT22;15918;51.270;6.522;2023-03-01T08:27:22;5.80;57.20
28763;DHT22;15918;51.270;6.522;2023-03-01T08:29:47;5.80;57.10
28763;DHT22;15918;51.270;6.522;2023-03-01T08:32:13;5.80;57.10
28763;DHT22;15918;51.270;6.522;2023-03-01T08:34:38;5.90;57.10
28763;DHT22;15918;51.270;6.522;2023-03-01T08:37:04;5.90;57.10
28763;DHT22;15918;51.270;6.522;2023-03-01T08:39:29;5.90;57.10
28763;DHT22;15918;51.270;6.522;2023-03-01T08:41:55;5.90;57.10
28763;DHT22;15918;51.270;6.522;2023-03-01T08:44:20;5.90;57.10
28763;DHT22;15918;51.270;6.522;2023-03-01T08:46:46;5.90;57.10
28763;DHT22;15918;51.270;6.522;2023-03-01T08:49:18;6.00;57.10
28763;DHT22;15918;51.270;6.522;2023-03-01T08:51:44;6.00;57.10
28763;DHT22;15918;51.270;6.522;2023-03-01T08:54:11;6.00;57.10
28763;DHT22;15918;51.270;6.522;2023-03-01T08:56:37;6.10;57.10
28763;DHT22;15918;51.270;6.522;2023-03-01T08:59:02;6.10;57.00
28763;DHT22;15918;51.270;6.522;2023-03-01T09:01:28;6.10;57.00
28763;DHT22;15918;51.270;6.522;2023-03-01T09:03:54;6.10;57.00
28763;DHT22;15918;51.270;6.522;2023-03-01T09:06:19;6.10;56.90
28763;DHT22;15918;51.270;6.522;2023-03-01T09:08:46;6.20;57.00
28763;DHT22;15918;51.270;6.522;2023-03-01T09:11:12;6.20;57.00
28763;DHT22;15918;51.270;6.522;2023-03-01T09:13:38;6.20;57.00
28763;DHT22;15918;51.270;6.522;2023-03-01T09:16:05;6.20;57.00
28763;DHT22;15918;51.270;6.522;2023-03-01T09:18:31;6.30;56.90
28763;DHT22;15918;51.270;6.522;2023-03-01T09:21:00;6.30;56.90
28763;DHT22;15918;51.270;6.522;2023-03-01T09:23:26;6.30;56.90
28763;DHT22;15918;51.270;6.522;2023-03-01T09:25:52;6.30;56.90
28763;DHT22;15918;51.270;6.522;2023-03-01T09:28:17;6.30;56.80
28763;DHT22;15918;51.270;6.522;2023-03-01T09:30:43;6.40;56.90
28763;DHT22;15918;51.270;6.522;2023-03-01T09:33:08;6.40;56.80
28763;DHT22;15918;51.270;6.522;2023-03-01T09:35:40;6.40;56.80
28763;DHT22;15918;51.270;6.522;2023-03-01T09:38:11;6.40;57.40
28763;DHT22;15918;51.270;6.522;2023-03-01T09:40:41;6.40;56.70
28763;DHT22;15918;51.270;6.522;2023-03-01T09:43:53;6.40;56.80
28763;DHT22;15918;51.270;6.522;2023-03-01T09:45:54;6.50;56.80
28763;DHT22;15918;51.270;6.522;2023-03-01T09:48:21;6.50;56.80
28763;DHT22;15918;51.270;6.522;2023-03-01T09:50:48;6.50;56.70
28763;DHT22;15918;51.270;6.522;2023-03-01T09:53:19;6.50;56.70
28763;DHT22;15918;51.270;6.522;2023-03-01T09:55:49;6.60;56.70
28763;DHT22;15918;51.270;6.522;2023-03-01T10:00:53;6.60;56.70
28763;DHT22;15918;51.270;6.522;2023-03-01T10:03:23;6.70;56.70
28763;DHT22;15918;51.270;6.522;2023-03-01T10:10:54;6.80;56.60
28763;DHT22;15918;51.270;6.522;2023-03-01T10:13:27;6.80;56.60
28763;DHT22;15918;51.270;6.522;2023-03-01T10:16:00;6.80;56.60
28763;DHT22;15918;51.270;6.522;2023-03-01T10:18:30;6.80;56.60
28763;DHT22;15918;51.270;6.522;2023-03-01T10:21:01;6.80;56.50
28763;DHT22;15918;51.270;6.522;2023-03-01T10:23:29;6.90;56.50
28763;DHT22;15918;51.270;6.522;2023-03-01T10:28:29;6.90;56.50
28763;DHT22;15918;51.270;6.522;2023-03-01T10:30:56;7.00;56.50
28763;DHT22;15918;51.270;6.522;2023-03-01T10:33:26;7.00;56.50
28763;DHT22;15918;51.270;6.522;2023-03-01T10:35:53;7.00;56.40
28763;DHT22;15918;51.270;6.522;2023-03-01T10:38:19;7.00;56.40
28763;DHT22;15918;51.270;6.522;2023-03-01T10:41:04;7.00;56.30
28763;DHT22;15918;51.270;6.522;2023-03-01T10:43:47;7.10;56.30
28763;DHT22;15918;51.270;6.522;2023-03-01T10:46:23;7.10;56.30
28763;DHT22;15918;51.270;6.522;2023-03-01T10:51:33;7.20;56.30
28763;DHT22;15918;51.270;6.522;2023-03-01T10:53:59;7.10;56.30
28763;DHT22;15918;51.270;6.522;2023-03-01T10:56:25;7.20;56.30
28763;DHT22;15918;51.270;6.522;2023-03-01T10:59:04;7.20;56.30
28763;DHT22;15918;51.270;6.522;2023-03-01T11:01:33;7.30;56.30
28763;DHT22;15918;51.270;6.522;2023-03-01T11:06:31;7.30;56.10
28763;DHT22;15918;51.270;6.522;2023-03-01T11:08:57;7.30;56.10
28763;DHT22;15918;51.270;6.522;2023-03-01T11:11:38;7.30;56.10
28763;DHT22;15918;51.270;6.522;2023-03-01T11:14:07;7.40;56.20
28763;DHT22;15918;51.270;6.522;2023-03-01T11:16:38;7.40;56.20
28763;DHT22;15918;51.270;6.522;2023-03-01T11:21:54;7.50;56.10
28763;DHT22;15918;51.270;6.522;2023-03-01T11:24:21;7.50;56.10
28763;DHT22;15918;51.270;6.522;2023-03-01T11:26:53;7.50;56.00
28763;DHT22;15918;51.270;6.522;2023-03-01T11:32:05;7.60;56.00
28763;DHT22;15918;51.270;6.522;2023-03-01T11:34:37;7.60;56.00
28763;DHT22;15918;51.270;6.522;2023-03-01T11:37:08;7.60;55.90
28763;DHT22;15918;51.270;6.522;2023-03-01T11:39:58;7.60;55.90
28763;DHT22;15918;51.270;6.522;2023-03-01T11:42:28;7.70;56.00
28763;DHT22;15918;51.270;6.522;2023-03-01T11:44:56;7.70;55.90
28763;DHT22;15918;51.270;6.522;2023-03-01T11:52:30;7.80;55.80
28763;DHT22;15918;51.270;6.522;2023-03-01T12:19:00;8.00;55.70
28763;DHT22;15918;51.270;6.522;2023-03-01T12:26:43;8.10;55.70
28763;DHT22;15918;51.270;6.522;2023-03-01T12:29:16;8.10;55.60
28763;DHT22;15918;51.270;6.522;2023-03-01T12:37:05;8.20;55.60
28763;DHT22;15918;51.270;6.522;2023-03-01T12:39:42;8.20;55.60
28763;DHT22;15918;51.270;6.522;2023-03-01T12:44:52;8.20;55.50
28763;DHT22;15918;51.270;6.522;2023-03-01T12:49:53;8.20;55.40
28763;DHT22;15918;51.270;6.522;2023-03-01T12:52:22;8.30;55.50
28763;DHT22;15918;51.270;6.522;2023-03-01T12:54:50;8.30;55.50
28763;DHT22;15918;51.270;6.522;2023-03-01T13:00:17;8.30;55.50
28763;DHT22;15918;51.270;6.522;2023-03-01T13:02:42;8.40;55.50
28763;DHT22;15918;51.270;6.522;2023-03-01T13:05:23;8.40;55.50
28763;DHT22;15918;51.270;6.522;2023-03-01T13:07:53;8.40;55.40
28763;DHT22;15918;51.270;6.522;2023-03-01T13:10:26;8.40;55.40
28763;DHT22;15918;51.270;6.522;2023-03-01T13:17:47;8.40;55.30
28763;DHT22;15918;51.270;6.522;2023-03-01T13:20:14;8.50;55.40
28763;DHT22;15918;51.270;6.522;2023-03-01T13:22:40;8.50;55.30
28763;DHT22;15918;51.270;6.522;2023-03-01T13:25:39;8.50;55.20
28763;DHT22;15918;51.270;6.522;2023-03-01T13:30:42;8.50;55.20
28763;DHT22;15918;51.270;6.522;2023-03-01T13:36:01;8.50;55.20
28763;DHT22;15918;51.270;6.522;2023-03-01T13:41:11;8.60;55.30
28763;DHT22;15918;51.270;6.522;2023-03-01T13:43:38;8.60;55.20
28763;DHT22;15918;51.270;6.522;2023-03-01T13:46:08;8.60;55.20
28763;DHT22;15918;51.270;6.522;2023-03-01T13:48:34;8.60;55.20
28763;DHT22;15918;51.270;6.522;2023-03-01T13:51:04;8.60;55.10
28763;DHT22;15918;51.270;6.522;2023-03-01T13:53:31;8.60;55.10
28763;DHT22;15918;51.270;6.522;2023-03-01T13:56:00;8.60;55.10
28763;DHT22;15918;51.270;6.522;2023-03-01T14:01:04;8.60;55.10
28763;DHT22;15918;51.270;6.522;2023-03-01T14:03:30;8.60;55.10
28763;DHT22;15918;51.270;6.522;2023-03-01T14:06:12;8.70;55.00
28763;DHT22;15918;51.270;6.522;2023-03-01T14:08:38;8.70;55.10
28763;DHT22;15918;51.270;6.522;2023-03-01T14:13:37;8.70;55.10
28763;DHT22;15918;51.270;6.522;2023-03-01T14:21:19;8.70;55.10
28763;DHT22;15918;51.270;6.522;2023-03-01T14:23:45;8.70;55.10
28763;DHT22;15918;51.270;6.522;2023-03-01T14:26:12;8.70;55.00
28763;DHT22;15918;51.270;6.522;2023-03-01T14:28:37;8.70;55.00
28763;DHT22;15918;51.270;6.522;2023-03-01T14:31:32;8.70;55.00
28763;DHT22;15918;51.270;6.522;2023-03-01T14:33:56;8.70;55.00
28763;DHT22;15918;51.270;6.522;2023-03-01T14:36:32;8.70;55.00
28763;DHT22;15918;51.270;6.522;2023-03-01T14:38:58;8.70;55.00
28763;DHT22;15918;51.270;6.522;2023-03-01T14:41:31;8.70;55.00
28763;DHT22;15918;51.270;6.522;2023-03-01T14:43:58;8.70;55.00
28763;DHT22;15918;51.270;6.522;2023-03-01T14:49:04;8.70;55.00
28763;DHT22;15918;51.270;6.522;2023-03-01T14:51:30;8.70;54.90
28763;DHT22;15918;51.270;6.522;2023-03-01T14:54:00;8.70;54.90
28763;DHT22;15918;51.270;6.522;2023-03-01T14:56:25;8.80;54.90
28763;DHT22;15918;51.270;6.522;2023-03-01T14:58:51;8.80;55.00
28763;DHT22;15918;51.270;6.522;2023-03-01T15:01:17;8.70;54.90
28763;DHT22;15918;51.270;6.522;2023-03-01T15:03:44;8.70;55.50
28763;DHT22;15918;51.270;6.522;2023-03-01T15:06:10;8.70;54.90
28763;DHT22;15918;51.270;6.522;2023-03-01T15:08:37;8.80;54.90
28763;DHT22;15918;51.270;6.522;2023-03-01T15:13:43;8.70;54.90
28763;DHT22;15918;51.270;6.522;2023-03-01T15:18:37;8.70;55.00
28763;DHT22;15918;51.270;6.522;2023-03-01T15:21:19;8.70;54.90
28763;DHT22;15918;51.270;6.522;2023-03-01T15:23:52;8.70;55.00
28763;DHT22;15918;51.270;6.522;2023-03-01T15:26:27;8.80;55.00
28763;DHT22;15918;51.270;6.522;2023-03-01T15:28:54;8.70;55.00
28763;DHT22;15918;51.270;6.522;2023-03-01T15:31:27;8.80;54.90
28763;DHT22;15918;51.270;6.522;2023-03-01T15:34:07;8.70;54.90
28763;DHT22;15918;51.270;6.522;2023-03-01T15:36:39;8.70;54.80
28763;DHT22;15918;51.270;6.522;2023-03-01T15:39:22;8.70;54.90
28763;DHT22;15918;51.270;6.522;2023-03-01T15:41:51;8.80;54.90
28763;DHT22;15918;51.270;6.522;2023-03-01T15:44:17;8.80;54.90
28763;DHT22;15918;51.270;6.522;2023-03-01T15:46:46;8.80;54.90
28763;DHT22;15918;51.270;6.522;2023-03-01T15:51:56;8.70;54.80
28763;DHT22;15918;51.270;6.522;2023-03-01T15:54:23;8.70;54.80
28763;DHT22;15918;51.270;6.522;2023-03-01T15:56:49;8.70;54.80
28763;DHT22;15918;51.270;6.522;2023-03-01T15:59:16;8.70;54.90
28763;DHT22;15918;51.270;6.522;2023-03-01T16:01:42;8.70;54.80
28763;DHT22;15918;51.270;6.522;2023-03-01T16:04:14;8.70;54.80
28763;DHT22;15918;51.270;6.522;2023-03-01T16:06:52;8.70;54.80
28763;DHT22;15918;51.270;6.522;2023-03-01T16:09:24;8.70;54.80
28763;DHT22;15918;51.270;6.522;2023-03-01T16:11:50;8.70;54.80
28763;DHT22;15918;51.270;6.522;2023-03-01T16:14:16;8.70;54.80
28763;DHT22;15918;51.270;6.522;2023-03-01T16:16:42;8.70;54.80
28763;DHT22;15918;51.270;6.522;2023-03-01T16:19:07;8.70;54.80
28763;DHT22;15918;51.270;6.522;2023-03-01T16:21:33;8.70;54.80
28763;DHT22;15918;51.270;6.522;2023-03-01T16:23:58;8.70;54.80
28763;DHT22;15918;51.270;6.522;2023-03-01T16:26:24;8.70;54.70
28763;DHT22;15918;51.270;6.522;2023-03-01T16:28:49;8.60;54.70
28763;DHT22;15918;51.270;6.522;2023-03-01T16:31:17;8.60;54.70
28763;DHT22;15918;51.270;6.522;2023-03-01T16:33:43;8.70;54.80
28763;DHT22;15918;51.270;6.522;2023-03-01T16:36:14;8.60;54.80
28763;DHT22;15918;51.270;6.522;2023-03-01T16:38:40;8.70;54.80
28763;DHT22;15918;51.270;6.522;2023-03-01T16:41:06;8.60;54.70
28763;DHT22;15918;51.270;6.522;2023-03-01T16:43:36;8.60;54.80
28763;DHT22;15918;51.270;6.522;2023-03-01T16:46:01;8.60;54.80
28763;DHT22;15918;51.270;6.522;2023-03-01T16:48:34;8.60;54.80
28763;DHT22;15918;51.270;6.522;2023-03-01T16:51:00;8.60;54.80
28763;DHT22;15918;51.270;6.522;2023-03-01T16:53:26;8.60;54.80
28763;DHT22;15918;51.270;6.522;2023-03-01T16:55:58;8.60;54.80
28763;DHT22;15918;51.270;6.522;2023-03-01T16:58:23;8.60;54.80
28763;DHT22;15918;51.270;6.522;2023-03-01T17:00:52;8.60;54.80
28763;DHT22;15918;51.270;6.522;2023-03-01T17:03:24;8.50;54.80
28763;DHT22;15918;51.270;6.522;2023-03-01T17:05:51;8.50;54.80
28763;DHT22;15918;51.270;6.522;2023-03-01T17:08:17;8.50;54.80
28763;DHT22;15918;51.270;6.522;2023-03-01T17:10:42;8.50;54.80
28763;DHT22;15918;51.270;6.522;2023-03-01T17:13:08;8.50;54.80
28763;DHT22;15918;51.270;6.522;2023-03-01T17:15:34;8.50;54.80
28763;DHT22;15918;51.270;6.522;2023-03-01T17:18:00;8.50;54.80
28763;DHT22;15918;51.270;6.522;2023-03-01T17:20:26;8.50;54.80
28763;DHT22;15918;51.270;6.522;2023-03-01T17:22:52;8.50;54.80
28763;DHT22;15918;51.270;6.522;2023-03-01T17:25:17;8.50;54.80
28763;DHT22;15918;51.270;6.522;2023-03-01T17:27:43;8.40;54.80
28763;DHT22;15918;51.270;6.522;2023-03-01T17:30:09;8.50;54.80
28763;DHT22;15918;51.270;6.522;2023-03-01T17:32:35;8.40;54.80
28763;DHT22;15918;51.270;6.522;2023-03-01T17:35:00;8.40;54.80
28763;DHT22;15918;51.270;6.522;2023-03-01T17:37:25;8.40;54.80
28763;DHT22;15918;51.270;6.522;2023-03-01T17:39:51;8.40;54.80